Time;durP1;ratioP1;P1;durP2;ratioP2;P2;SDS_P1;SDS_P2;PMS_P1;PMS_P2;Temp;Humidity;BMP_temperature;BMP_pressure;BME280_temperature;BME280_humidity;BME280_pressure;Samples;Min_cycle;Max_cycle;Signal;HPM_P1;HPM_P2
2023/06/03 00:00:28;;;;;;;;;;;20.10;50.70;;;;;;5094000;28;19920;-69
2023/06/03 00:02:54;;;;;;;;;;;20.10;50.70;;;;;;5094238;28;20083;-69
2023/06/03 00:05:20;;;;;;;;;;;20.10;50.70;;;;;;5094135;28;20276;-68
2023/06/03 00:07:45;;;;;;;;;;;20.10;50.70;;;;;;5094096;28;19920;-69
2023/06/03 00:10:11;;;;;;;;;;;20.10;50.60;;;;;;5094234;28;20002;-71
2023/06/03 00:12:37;;;;;;;;;;;20.10;50.60;;;;;;5128144;28;19919;-69
2023/06/03 00:15:02;;;;;;;;;;;20.10;50.60;;;;;;5094332;28;19919;-69
2023/06/03 00:17:28;;;;;;;;;;;20.10;50.60;;;;;;5112628;28;19924;-69
2023/06/03 00:19:54;;;;;;;;;;;20.10;50.60;;;;;;5093712;28;20054;-69
2023/06/03 00:22:21;;;;;;;;;;;20.10;50.60;;;;;;5093883;28;19960;-69
2023/06/03 00:24:47;;;;;;;;;;;20.10;50.60;;;;;;5112181;28;20389;-69
2023/06/03 00:27:12;;;;;;;;;;;20.10;50.60;;;;;;5113089;28;20307;-69
2023/06/03 00:29:38;;;;;;;;;;;20.00;50.50;;;;;;5131768;27;19926;-68
2023/06/03 00:32:04;;;;;;;;;;;20.00;50.50;;;;;;5097439;28;19927;-75
2023/06/03 00:34:30;;;;;;;;;;;20.00;50.50;;;;;;5097778;28;19927;-69
2023/06/03 00:36:55;;;;;;;;;;;20.00;50.50;;;;;;5115849;28;20389;-69
2023/06/03 00:39:21;;;;;;;;;;;20.00;50.50;;;;;;5097419;28;19928;-69
2023/06/03 00:41:47;;;;;;;;;;;20.00;50.50;;;;;;5115647;28;19927;-69
2023/06/03 00:44:12;;;;;;;;;;;20.00;50.50;;;;;;5097472;28;19920;-69
2023/06/03 00:46:38;;;;;;;;;;;20.00;50.50;;;;;;5097167;28;19969;-69
2023/06/03 00:49:04;;;;;;;;;;;19.90;50.40;;;;;;5097268;28;19986;-69
2023/06/03 00:51:31;;;;;;;;;;;19.90;50.40;;;;;;5131576;27;19931;-69
2023/06/03 00:53:57;;;;;;;;;;;19.90;50.30;;;;;;5115611;28;19928;-69
2023/06/03 00:56:23;;;;;;;;;;;19.90;50.40;;;;;;5097192;28;19920;-69
2023/06/03 00:58:49;;;;;;;;;;;20.00;50.40;;;;;;5115265;28;19920;-69
2023/06/03 01:01:14;;;;;;;;;;;19.90;50.30;;;;;;5096908;28;19993;-69
2023/06/03 01:03:43;;;;;;;;;;;19.90;50.30;;;;;;5131335;27;19919;-69
2023/06/03 01:06:20;;;;;;;;;;;19.90;50.20;;;;;;5115427;28;19920;-69
2023/06/03 01:09:05;;;;;;;;;;;19.90;50.20;;;;;;5097117;28;19920;-69
2023/06/03 01:11:51;;;;;;;;;;;19.90;50.20;;;;;;5096605;28;19927;-69
2023/06/03 01:14:36;;;;;;;;;;;19.90;50.20;;;;;;5096856;28;19931;-69
2023/06/03 01:17:09;;;;;;;;;;;19.90;50.20;;;;;;5096555;28;19920;-69
2023/06/03 01:19:51;;;;;;;;;;;19.80;50.10;;;;;;5096597;28;20291;-69
2023/06/03 01:22:20;;;;;;;;;;;19.80;50.10;;;;;;5114919;28;20123;-69
2023/06/03 01:24:46;;;;;;;;;;;19.80;50.10;;;;;;5096839;28;19943;-69
2023/06/03 01:27:12;;;;;;;;;;;19.80;50.10;;;;;;5096538;28;19919;-69
2023/06/03 01:29:40;;;;;;;;;;;19.80;50.10;;;;;;5096736;28;19926;-69
2023/06/03 01:32:07;;;;;;;;;;;19.80;50.10;;;;;;5096413;28;19926;-69
2023/06/03 01:34:32;;;;;;;;;;;19.80;50.10;;;;;;5096592;28;20375;-69
2023/06/03 01:36:58;;;;;;;;;;;19.70;50.10;;;;;;5096326;28;19926;-69
2023/06/03 01:39:24;;;;;;;;;;;19.70;50.00;;;;;;5096085;28;19965;-69
2023/06/03 01:41:51;;;;;;;;;;;19.70;50.00;;;;;;5114475;28;19924;-69
2023/06/03 01:44:16;;;;;;;;;;;19.70;50.00;;;;;;5096421;28;20483;-69
2023/06/03 01:46:42;;;;;;;;;;;19.70;50.00;;;;;;5096148;28;19936;-69
2023/06/03 01:49:08;;;;;;;;;;;19.70;50.00;;;;;;5096068;28;19966;-69
2023/06/03 01:51:33;;;;;;;;;;;19.70;50.80;;;;;;5095984;28;19920;-69
2023/06/03 01:53:59;;;;;;;;;;;19.70;50.00;;;;;;5114156;28;19931;-68
2023/06/03 01:56:25;;;;;;;;;;;19.60;50.00;;;;;;5096314;28;20287;-69
2023/06/03 01:58:51;;;;;;;;;;;19.60;49.90;;;;;;5114241;28;19919;-69
2023/06/03 02:01:16;;;;;;;;;;;19.60;49.90;;;;;;5095796;28;20359;-69
2023/06/03 02:03:42;;;;;;;;;;;19.60;49.90;;;;;;5096192;28;19919;-69
2023/06/03 02:06:07;;;;;;;;;;;19.60;49.90;;;;;;5095851;28;19981;-69
2023/06/03 02:08:35;;;;;;;;;;;19.60;49.90;;;;;;5095963;28;19927;-69
2023/06/03 02:11:01;;;;;;;;;;;19.50;49.80;;;;;;5113768;28;19920;-69
2023/06/03 02:13:27;;;;;;;;;;;19.50;49.80;;;;;;5114048;28;19926;-69
2023/06/03 02:15:52;;;;;;;;;;;19.50;50.60;;;;;;5095854;28;19920;-69
2023/06/03 02:18:18;;;;;;;;;;;19.50;49.90;;;;;;5113841;28;20426;-69
2023/06/03 02:20:45;;;;;;;;;;;19.50;49.80;;;;;;5129332;27;19924;-69
2023/06/03 02:23:11;;;;;;;;;;;19.50;49.80;;;;;;5095441;28;20018;-69
2023/06/03 02:25:36;;;;;;;;;;;19.50;49.80;;;;;;5113473;28;20019;-69
2023/06/03 02:28:03;;;;;;;;;;;19.50;49.80;;;;;;5095740;28;20397;-68
2023/06/03 02:30:28;;;;;;;;;;;19.40;49.70;;;;;;5095261;28;19972;-69
2023/06/03 02:32:54;;;;;;;;;;;19.40;49.70;;;;;;5113662;28;19923;-69
2023/06/03 02:35:19;;;;;;;;;;;19.40;49.80;;;;;;5113494;28;20383;-69
2023/06/03 02:37:45;;;;;;;;;;;19.40;49.70;;;;;;5095350;28;19952;-68
2023/06/03 02:40:11;;;;;;;;;;;19.40;49.70;;;;;;5129086;27;19931;-69
2023/06/03 02:42:37;;;;;;;;;;;19.40;49.70;;;;;;5095124;28;19920;-69
2023/06/03 02:45:02;;;;;;;;;;;19.40;49.80;;;;;;5095344;28;19920;-69
2023/06/03 02:47:28;;;;;;;;;;;19.30;49.70;;;;;;5095354;28;19919;-69
2023/06/03 02:49:53;;;;;;;;;;;19.30;49.70;;;;;;5094490;28;20440;-69
2023/06/03 02:52:20;;;;;;;;;;;19.30;49.70;;;;;;5094868;28;19923;-69
2023/06/03 02:54:45;;;;;;;;;;;19.30;49.70;;;;;;5095146;28;19920;-69
2023/06/03 02:57:10;;;;;;;;;;;19.30;49.70;;;;;;5128928;27;20256;-69
2023/06/03 02:59:36;;;;;;;;;;;19.30;49.70;;;;;;5113214;28;19965;-69
2023/06/03 03:02:01;;;;;;;;;;;19.20;49.70;;;;;;5094766;28;20006;-69
2023/06/03 03:04:27;;;;;;;;;;;19.20;49.70;;;;;;5094787;28;19920;-68
2023/06/03 03:06:54;;;;;;;;;;;19.20;49.70;;;;;;5112952;28;20317;-69
2023/06/03 03:09:19;;;;;;;;;;;19.20;49.70;;;;;;5094981;28;19981;-69
2023/06/03 03:11:45;;;;;;;;;;;19.20;49.70;;;;;;5094465;28;19919;-69
2023/06/03 03:14:10;;;;;;;;;;;19.20;49.70;;;;;;5094900;28;19924;-69
2023/06/03 03:16:36;;;;;;;;;;;19.20;49.70;;;;;;5112845;28;19989;-69
2023/06/03 03:19:01;;;;;;;;;;;19.20;49.70;;;;;;5094668;28;20325;-69
2023/06/03 03:21:27;;;;;;;;;;;19.20;49.70;;;;;;5094421;28;20387;-69
2023/06/03 03:23:52;;;;;;;;;;;19.10;49.60;;;;;;5094793;28;19973;-69
2023/06/03 03:26:21;;;;;;;;;;;19.10;49.60;;;;;;5112721;28;20251;-68
2023/06/03 03:28:46;;;;;;;;;;;19.10;49.60;;;;;;5094835;28;19926;-69
2023/06/03 03:31:14;;;;;;;;;;;19.10;49.70;;;;;;5094461;28;20398;-69
2023/06/03 03:33:40;;;;;;;;;;;19.10;49.60;;;;;;5094670;28;19923;-69
2023/06/03 03:36:37;;;;;;;;;;;19.10;49.60;;;;;;5094391;28;20294;-73
2023/06/03 03:39:01;;;;;;;;;;;19.10;49.60;;;;;;5112426;28;19920;-69
2023/06/03 03:41:26;;;;;;;;;;;19.00;49.60;;;;;;5094377;28;19930;-69
2023/06/03 03:43:52;;;;;;;;;;;19.00;49.60;;;;;;5094635;28;19919;-69
2023/06/03 03:46:18;;;;;;;;;;;19.00;49.60;;;;;;5112695;28;19919;-69
2023/06/03 03:48:44;;;;;;;;;;;19.00;49.60;;;;;;5094675;28;19974;-69
2023/06/03 03:51:11;;;;;;;;;;;19.00;49.50;;;;;;5094646;28;19963;-69
2023/06/03 03:53:37;;;;;;;;;;;19.00;49.60;;;;;;5094301;28;19926;-68
2023/06/03 03:56:02;;;;;;;;;;;19.00;49.50;;;;;;5094561;28;19919;-69
2023/06/03 03:58:30;;;;;;;;;;;19.00;50.30;;;;;;5094467;28;20180;-69
2023/06/03 04:01:00;;;;;;;;;;;19.00;49.60;;;;;;5094201;28;19930;-69
2023/06/03 04:03:27;;;;;;;;;;;19.00;49.60;;;;;;5097417;28;19919;-69
2023/06/03 04:05:53;;;;;;;;;;;18.90;49.50;;;;;;5098203;28;19927;-69
2023/06/03 04:08:38;;;;;;;;;;;18.90;49.50;;;;;;5098236;28;19919;-69
2023/06/03 04:11:04;;;;;;;;;;;18.90;49.50;;;;;;5116012;28;19920;-69
2023/06/03 04:13:33;;;;;;;;;;;18.90;49.60;;;;;;5098177;28;20283;-69
2023/06/03 04:16:00;;;;;;;;;;;18.90;49.50;;;;;;5116335;28;19920;-69
2023/06/03 04:18:26;;;;;;;;;;;18.90;49.50;;;;;;5098077;28;20275;-69
2023/06/03 04:20:56;;;;;;;;;;;18.90;49.50;;;;;;5115788;28;19924;-69
2023/06/03 04:23:22;;;;;;;;;;;18.90;49.50;;;;;;5097594;28;19923;-69
2023/06/03 04:25:48;;;;;;;;;;;18.90;49.50;;;;;;5098024;28;20435;-69
2023/06/03 04:28:14;;;;;;;;;;;18.90;49.50;;;;;;5131866;27;20002;-69
2023/06/03 04:30:39;;;;;;;;;;;18.90;49.50;;;;;;5131708;27;19930;-69
2023/06/03 04:33:05;;;;;;;;;;;18.80;49.40;;;;;;5115916;28;19919;-69
2023/06/03 04:35:31;;;;;;;;;;;18.80;49.40;;;;;;5097344;28;19919;-69
2023/06/03 04:37:57;;;;;;;;;;;18.80;49.40;;;;;;5097820;28;19930;-69
2023/06/03 04:40:22;;;;;;;;;;;18.80;49.40;;;;;;5097534;28;20431;-69
2023/06/03 04:42:49;;;;;;;;;;;18.80;49.40;;;;;;5097886;28;19920;-69
2023/06/03 04:45:15;;;;;;;;;;;18.80;49.40;;;;;;5097344;28;19920;-69
2023/06/03 04:47:41;;;;;;;;;;;18.80;49.40;;;;;;5097744;28;19926;-69
2023/06/03 04:50:08;;;;;;;;;;;18.80;49.40;;;;;;5097570;28;19920;-69
2023/06/03 04:52:34;;;;;;;;;;;18.80;49.40;;;;;;5097438;28;19926;-69
2023/06/03 04:55:00;;;;;;;;;;;18.80;49.40;;;;;;5097060;28;19923;-69
2023/06/03 04:57:25;;;;;;;;;;;18.80;49.40;;;;;;5097119;28;19943;-69
2023/06/03 04:59:51;;;;;;;;;;;18.80;49.40;;;;;;5096941;28;19941;-68
2023/06/03 05:02:16;;;;;;;;;;;18.80;49.40;;;;;;5097360;28;20015;-69
2023/06/03 05:04:42;;;;;;;;;;;18.80;49.30;;;;;;5131151;27;19920;-69
2023/06/03 05:07:10;;;;;;;;;;;18.80;49.30;;;;;;5131418;27;19923;-69
2023/06/03 05:09:35;;;;;;;;;;;18.70;49.20;;;;;;5115191;28;19923;-69
2023/06/03 05:12:01;;;;;;;;;;;18.70;49.20;;;;;;5115026;28;19920;-69
2023/06/03 05:14:26;;;;;;;;;;;18.70;49.20;;;;;;5096525;28;19966;-69
2023/06/03 05:16:52;;;;;;;;;;;18.70;49.10;;;;;;5096742;28;19924;-69
2023/06/03 05:19:17;;;;;;;;;;;18.70;49.10;;;;;;5096484;28;19931;-69
2023/06/03 05:21:43;;;;;;;;;;;18.70;49.00;;;;;;5096517;28;20348;-69
2023/06/03 05:24:08;;;;;;;;;;;18.70;49.00;;;;;;5114836;28;19930;-74
2023/06/03 05:26:34;;;;;;;;;;;18.70;49.00;;;;;;5096843;28;20386;-69
2023/06/03 05:28:59;;;;;;;;;;;18.70;49.00;;;;;;5096568;28;19923;-69
2023/06/03 05:31:25;;;;;;;;;;;18.70;49.00;;;;;;5096721;28;19920;-69
2023/06/03 05:33:50;;;;;;;;;;;18.70;49.00;;;;;;5096740;28;19920;-68
2023/06/03 05:36:16;;;;;;;;;;;18.70;49.00;;;;;;5114544;28;19920;-69
2023/06/03 05:38:41;;;;;;;;;;;18.70;49.00;;;;;;5096206;28;19920;-69
2023/06/03 05:41:06;;;;;;;;;;;18.70;48.90;;;;;;5114647;28;19931;-69
2023/06/03 05:43:32;;;;;;;;;;;18.70;48.90;;;;;;5096635;28;19967;-69
2023/06/03 05:45:57;;;;;;;;;;;18.80;49.00;;;;;;5114759;28;20015;-69
2023/06/03 05:48:23;;;;;;;;;;;18.70;48.90;;;;;;5096162;28;19927;-69
2023/06/03 05:50:52;;;;;;;;;;;18.70;48.90;;;;;;5114406;28;19919;-69
2023/06/03 05:53:18;;;;;;;;;;;18.70;48.90;;;;;;5096212;28;19935;-69
2023/06/03 05:55:44;;;;;;;;;;;18.70;48.90;;;;;;5096007;28;20538;-69
2023/06/03 05:58:09;;;;;;;;;;;18.70;48.90;;;;;;5114353;28;19924;-69
2023/06/03 06:00:35;;;;;;;;;;;18.70;49.00;;;;;;5114181;28;19924;-69
2023/06/03 06:03:03;;;;;;;;;;;18.70;48.90;;;;;;5114101;28;20028;-68
2023/06/03 06:05:29;;;;;;;;;;;18.70;49.00;;;;;;5078886;28;20011;-69
2023/06/03 06:07:55;;;;;;;;;;;18.70;49.00;;;;;;5113998;28;20346;-69
2023/06/03 06:10:20;;;;;;;;;;;18.70;48.90;;;;;;5095918;28;20399;-69
2023/06/03 06:12:46;;;;;;;;;;;18.70;48.90;;;;;;5095851;28;19971;-69
2023/06/03 06:15:12;;;;;;;;;;;18.70;48.80;;;;;;5130065;27;20021;-69
2023/06/03 06:17:38;;;;;;;;;;;18.70;48.80;;;;;;5113894;28;19927;-69
2023/06/03 06:20:04;;;;;;;;;;;18.70;48.70;;;;;;5095191;28;19924;-69
2023/06/03 06:22:30;;;;;;;;;;;18.70;48.80;;;;;;5095363;28;19927;-74
2023/06/03 06:24:56;;;;;;;;;;;18.70;48.70;;;;;;5128806;27;19920;-69
2023/06/03 06:27:21;;;;;;;;;;;18.70;48.70;;;;;;5095392;28;19927;-69
2023/06/03 06:29:47;;;;;;;;;;;18.70;48.70;;;;;;5129848;27;19926;-69
2023/06/03 06:32:17;;;;;;;;;;;18.70;48.80;;;;;;5095636;28;19970;-68
2023/06/03 06:34:42;;;;;;;;;;;18.70;48.80;;;;;;5095522;28;19927;-69
2023/06/03 06:37:09;;;;;;;;;;;18.70;48.80;;;;;;5129655;27;19919;-69
2023/06/03 06:39:55;;;;;;;;;;;18.70;48.70;;;;;;5095309;28;19977;-69
2023/06/03 06:45:07;;;;;;;;;;;18.70;48.70;;;;;;5110172;27;20283;-69
2023/06/03 06:47:35;;;;;;;;;;;18.70;48.60;;;;;;5108961;28;20034;-69
2023/06/03 06:50:01;;;;;;;;;;;18.70;48.70;;;;;;5108771;28;19924;-69
2023/06/03 06:52:26;;;;;;;;;;;18.70;48.60;;;;;;5108908;28;20480;-69
2023/06/03 06:54:54;;;;;;;;;;;18.70;48.60;;;;;;5109023;28;19942;-69
2023/06/03 06:57:21;;;;;;;;;;;18.70;48.50;;;;;;5108790;28;19919;-69
2023/06/03 06:59:47;;;;;;;;;;;18.70;48.50;;;;;;5108655;28;20403;-68
2023/06/03 07:02:13;;;;;;;;;;;18.70;48.40;;;;;;5108686;28;20010;-69
2023/06/03 07:04:38;;;;;;;;;;;18.70;48.30;;;;;;5108533;28;20051;-69
2023/06/03 07:07:04;;;;;;;;;;;18.70;48.40;;;;;;5108562;28;19949;-68
2023/06/03 07:09:29;;;;;;;;;;;18.70;48.40;;;;;;5108802;28;19920;-69
2023/06/03 07:11:56;;;;;;;;;;;18.70;48.40;;;;;;5108719;28;19919;-69
2023/06/03 07:14:22;;;;;;;;;;;18.70;48.30;;;;;;5108411;28;20399;-69
2023/06/03 07:16:48;;;;;;;;;;;18.70;48.20;;;;;;5109723;28;19994;-69
2023/06/03 07:19:14;;;;;;;;;;;18.70;48.20;;;;;;5108595;28;19931;-69
2023/06/03 07:21:39;;;;;;;;;;;18.70;48.30;;;;;;5108567;28;19932;-69
2023/06/03 07:24:07;;;;;;;;;;;18.70;48.20;;;;;;5109625;28;19924;-69
2023/06/03 07:26:33;;;;;;;;;;;18.70;48.20;;;;;;5108498;28;20000;-69
2023/06/03 07:28:59;;;;;;;;;;;18.70;48.00;;;;;;5108234;28;19920;-69
2023/06/03 07:31:25;;;;;;;;;;;18.80;48.10;;;;;;5108340;28;20477;-69
2023/06/03 07:33:53;;;;;;;;;;;18.80;48.10;;;;;;5108427;28;19920;-69
2023/06/03 07:36:20;;;;;;;;;;;18.80;48.40;;;;;;5109141;28;19978;-69
2023/06/03 07:39:06;;;;;;;;;;;18.80;48.00;;;;;;5108290;28;19931;-69
2023/06/03 07:44:13;;;;;;;;;;;18.80;48.10;;;;;;5110329;27;19912;-69
2023/06/03 07:46:43;;;;;;;;;;;18.80;48.10;;;;;;5109100;28;19966;-69
2023/06/03 07:49:11;;;;;;;;;;;18.80;48.10;;;;;;5108954;28;19920;-68
2023/06/03 07:51:41;;;;;;;;;;;18.80;48.00;;;;;;5110131;28;20286;-69
2023/06/03 07:54:06;;;;;;;;;;;18.90;48.10;;;;;;5108883;28;19920;-69
2023/06/03 07:56:32;;;;;;;;;;;18.80;48.00;;;;;;5108713;28;19969;-69
2023/06/03 07:59:00;;;;;;;;;;;18.80;48.00;;;;;;5108738;28;19986;-69
2023/06/03 08:01:26;;;;;;;;;;;18.80;48.00;;;;;;5108585;28;19973;-69
2023/06/03 08:03:52;;;;;;;;;;;18.80;47.90;;;;;;5108601;28;19951;-69
2023/06/03 08:06:17;;;;;;;;;;;18.80;47.90;;;;;;5108847;28;19981;-69
2023/06/03 08:08:43;;;;;;;;;;;18.80;47.90;;;;;;5109957;28;20019;-69
2023/06/03 08:11:09;;;;;;;;;;;18.80;47.80;;;;;;5108378;28;19962;-69
2023/06/03 08:13:34;;;;;;;;;;;18.80;47.90;;;;;;5108485;28;19920;-69
2023/06/03 08:16:00;;;;;;;;;;;18.90;47.90;;;;;;5108736;28;19920;-69
2023/06/03 08:21:06;;;;;;;;;;;18.90;47.70;;;;;;5110311;27;19986;-69
2023/06/03 08:23:33;;;;;;;;;;;18.90;47.50;;;;;;5109415;28;19926;-69
2023/06/03 08:25:59;;;;;;;;;;;18.90;47.50;;;;;;5108938;28;20387;-69
2023/06/03 08:28:24;;;;;;;;;;;18.90;47.50;;;;;;5108907;28;19973;-69
2023/06/03 08:30:50;;;;;;;;;;;18.90;47.10;;;;;;5109087;28;19924;-69
2023/06/03 08:33:16;;;;;;;;;;;18.90;46.80;;;;;;5108708;28;20414;-69
2023/06/03 08:35:42;;;;;;;;;;;18.90;46.70;;;;;;5108695;28;19920;-69
2023/06/03 08:38:08;;;;;;;;;;;18.90;46.90;;;;;;5108641;28;19924;-69
2023/06/03 08:40:36;;;;;;;;;;;18.90;46.80;;;;;;5109869;28;19928;-69
2023/06/03 08:43:02;;;;;;;;;;;18.90;46.30;;;;;;5108514;28;20369;-69
2023/06/03 08:45:31;;;;;;;;;;;18.90;46.40;;;;;;5108571;28;19969;-69
2023/06/03 08:48:05;;;;;;;;;;;19.00;46.40;;;;;;5108680;28;19924;-69
2023/06/03 08:50:32;;;;;;;;;;;18.90;46.50;;;;;;5108516;28;19977;-69
2023/06/03 08:52:59;;;;;;;;;;;19.00;46.40;;;;;;5109726;28;20415;-69
2023/06/03 08:55:25;;;;;;;;;;;18.90;46.90;;;;;;5108701;28;19927;-69
2023/06/03 08:58:03;;;;;;;;;;;18.90;46.90;;;;;;5108259;28;20290;-69
2023/06/03 09:00:30;;;;;;;;;;;19.00;46.90;;;;;;5109536;28;19924;-69
2023/06/03 09:02:55;;;;;;;;;;;19.00;46.90;;;;;;5108154;28;19966;-68
2023/06/03 09:05:21;;;;;;;;;;;19.00;46.80;;;;;;5108506;28;19920;-69
2023/06/03 09:07:48;;;;;;;;;;;19.00;46.80;;;;;;5108425;28;20018;-69
2023/06/03 09:10:21;;;;;;;;;;;19.00;46.70;;;;;;5109328;28;19919;-69
2023/06/03 09:12:47;;;;;;;;;;;19.00;46.60;;;;;;5107989;28;19920;-68
2023/06/03 09:15:14;;;;;;;;;;;19.00;46.60;;;;;;5109193;28;19926;-68
2023/06/03 09:17:40;;;;;;;;;;;19.10;46.50;;;;;;5109284;28;19920;-69
2023/06/03 09:20:06;;;;;;;;;;;19.10;46.50;;;;;;5121450;28;19947;-69
2023/06/03 09:22:33;;;;;;;;;;;19.10;46.50;;;;;;5111500;28;20359;-69
2023/06/03 09:24:58;;;;;;;;;;;19.10;46.40;;;;;;5145771;27;19924;-68
2023/06/03 09:27:24;;;;;;;;;;;19.20;46.40;;;;;;5145739;27;20333;-69
2023/06/03 09:29:50;;;;;;;;;;;19.10;46.30;;;;;;5111044;28;19969;-69
2023/06/03 09:32:16;;;;;;;;;;;19.10;46.30;;;;;;5098531;28;20442;-68
2023/06/03 09:34:42;;;;;;;;;;;19.20;46.40;;;;;;5131776;27;20014;-68
2023/06/03 09:37:09;;;;;;;;;;;19.20;46.40;;;;;;5097683;28;20295;-69
2023/06/03 09:39:35;;;;;;;;;;;19.10;46.10;;;;;;5131258;27;19924;-69
2023/06/03 09:42:00;;;;;;;;;;;19.20;46.30;;;;;;5115589;28;20013;-69
2023/06/03 09:44:46;;;;;;;;;;;19.20;46.30;;;;;;5115320;28;20391;-69
2023/06/03 09:47:11;;;;;;;;;;;19.10;46.10;;;;;;5097265;28;19920;-69
2023/06/03 09:49:37;;;;;;;;;;;19.20;46.30;;;;;;5096969;28;20385;-68
2023/06/03 09:52:07;;;;;;;;;;;19.20;46.30;;;;;;5097358;28;19919;-68
2023/06/03 09:54:33;;;;;;;;;;;19.10;46.30;;;;;;5115240;28;20015;-69
2023/06/03 09:57:08;;;;;;;;;;;19.20;46.30;;;;;;5097236;28;20451;-69
2023/06/03 09:59:34;;;;;;;;;;;19.20;46.30;;;;;;5115217;28;20286;-69
2023/06/03 10:01:59;;;;;;;;;;;19.10;46.20;;;;;;5115315;28;19926;-68
2023/06/03 10:04:45;;;;;;;;;;;19.10;45.90;;;;;;5115217;28;19920;-69
2023/06/03 10:07:12;;;;;;;;;;;19.10;46.20;;;;;;5096973;28;19968;-68
2023/06/03 10:09:38;;;;;;;;;;;19.20;45.90;;;;;;5096575;28;20578;-68
2023/06/03 10:12:04;;;;;;;;;;;19.20;45.80;;;;;;5114870;28;19928;-68
2023/06/03 10:14:29;;;;;;;;;;;19.20;45.90;;;;;;5096964;28;19920;-68
2023/06/03 10:17:03;;;;;;;;;;;19.20;45.80;;;;;;5096858;28;19920;-68
2023/06/03 10:19:30;;;;;;;;;;;19.20;45.80;;;;;;5096248;28;19927;-68
2023/06/03 10:21:56;;;;;;;;;;;19.20;46.00;;;;;;5114684;28;19920;-68
2023/06/03 10:24:23;;;;;;;;;;;19.20;45.90;;;;;;5096689;28;20290;-68
2023/06/03 10:26:48;;;;;;;;;;;19.20;45.80;;;;;;5096336;28;19923;-68
2023/06/03 10:29:15;;;;;;;;;;;19.20;46.10;;;;;;5114880;28;19927;-68
2023/06/03 10:31:44;;;;;;;;;;;19.20;46.20;;;;;;5096282;28;19944;-69
2023/06/03 10:34:11;;;;;;;;;;;19.20;46.10;;;;;;5079707;28;20428;-69
2023/06/03 10:36:36;;;;;;;;;;;19.20;46.20;;;;;;5114905;28;19988;-69
2023/06/03 10:39:08;;;;;;;;;;;19.20;46.20;;;;;;5114271;28;20417;-69
2023/06/03 10:41:36;;;;;;;;;;;19.20;46.10;;;;;;5114347;28;20394;-69
2023/06/03 10:44:01;;;;;;;;;;;19.20;46.20;;;;;;5095373;28;20264;-68
2023/06/03 10:46:27;;;;;;;;;;;19.20;46.00;;;;;;5095983;28;20053;-69
2023/06/03 10:48:53;;;;;;;;;;;19.20;45.70;;;;;;5096331;28;20022;-69
2023/06/03 10:51:31;;;;;;;;;;;19.20;46.10;;;;;;5096182;28;20489;-68
2023/06/03 10:56:49;;;;;;;;;;;19.20;46.10;;;;;;5110266;27;19916;-69
2023/06/03 10:59:17;;;;;;;;;;;19.20;46.10;;;;;;5109000;28;19923;-69
2023/06/03 11:01:58;;;;;;;;;;;19.30;46.40;;;;;;5108865;28;19926;-69
2023/06/03 11:04:25;;;;;;;;;;;19.20;46.30;;;;;;5108922;28;19920;-69
2023/06/03 11:06:50;;;;;;;;;;;19.20;45.80;;;;;;5110110;28;19974;-68
2023/06/03 11:09:29;;;;;;;;;;;19.20;45.50;;;;;;5109070;28;20343;-68
2023/06/03 11:11:59;;;;;;;;;;;19.30;46.10;;;;;;5108630;28;19920;-74
2023/06/03 11:25:06;;;;;;;;;;;19.20;46.40;;;;;;5110219;27;19912;-69
2023/06/03 11:27:32;;;;;;;;;;;19.30;46.30;;;;;;5108923;28;20410;-68
2023/06/03 11:29:59;;;;;;;;;;;19.30;46.40;;;;;;5109289;28;19931;-68
2023/06/03 11:40:41;;;;;;;;;;;19.30;46.40;;;;;;5110360;27;19912;-68
2023/06/03 11:43:06;;;;;;;;;;;19.30;45.60;;;;;;5108949;28;19927;-69
2023/06/03 11:45:32;;;;;;;;;;;19.30;45.20;;;;;;5109185;28;19920;-68
2023/06/03 11:48:02;;;;;;;;;;;19.30;45.20;;;;;;5108782;28;20282;-69
2023/06/03 11:50:29;;;;;;;;;;;19.30;45.50;;;;;;5109081;28;20353;-68
2023/06/03 11:52:55;;;;;;;;;;;19.30;45.80;;;;;;5108814;28;19920;-68
2023/06/03 11:58:22;;;;;;;;;;;19.40;46.10;;;;;;5110276;27;19919;-68
2023/06/03 12:00:48;;;;;;;;;;;19.30;46.30;;;;;;5109204;28;19973;-68
2023/06/03 12:03:14;;;;;;;;;;;19.40;46.40;;;;;;5108969;28;20341;-68
2023/06/03 12:06:01;;;;;;;;;;;19.40;46.40;;;;;;5108858;28;19927;-68
2023/06/03 12:08:40;;;;;;;;;;;19.40;46.30;;;;;;5109331;28;19926;-68
2023/06/03 12:11:06;;;;;;;;;;;19.40;46.20;;;;;;5109045;28;19989;-68
2023/06/03 12:13:41;;;;;;;;;;;19.40;45.40;;;;;;5108712;28;20374;-68
2023/06/03 12:16:06;;;;;;;;;;;19.40;45.40;;;;;;5108837;28;19931;-68
2023/06/03 12:18:32;;;;;;;;;;;19.40;45.30;;;;;;5108674;28;19920;-69
2023/06/03 12:21:18;;;;;;;;;;;19.40;46.40;;;;;;5109796;28;20001;-68
2023/06/03 12:23:43;;;;;;;;;;;19.40;45.30;;;;;;5143074;27;19928;-68
2023/06/03 12:26:09;;;;;;;;;;;19.40;45.30;;;;;;5108731;28;19920;-69
2023/06/03 12:28:34;;;;;;;;;;;19.40;45.30;;;;;;5108973;28;20274;-68
2023/06/03 12:31:09;;;;;;;;;;;19.40;45.00;;;;;;5108333;28;19920;-68
2023/06/03 12:33:43;;;;;;;;;;;19.50;45.10;;;;;;5109753;28;20295;-68
2023/06/03 12:36:09;;;;;;;;;;;19.50;45.10;;;;;;5108349;28;19946;-68
2023/06/03 12:38:55;;;;;;;;;;;19.50;45.40;;;;;;5108548;28;19959;-69
2023/06/03 12:41:20;;;;;;;;;;;19.50;45.20;;;;;;5108028;28;19920;-68
2023/06/03 12:43:46;;;;;;;;;;;19.50;46.50;;;;;;5108184;28;19920;-69
2023/06/03 12:46:19;;;;;;;;;;;19.40;45.40;;;;;;5108353;28;19927;-68
2023/06/03 12:48:45;;;;;;;;;;;19.50;45.20;;;;;;5108040;28;19924;-68
2023/06/03 12:51:28;;;;;;;;;;;19.50;45.10;;;;;;5108150;28;19920;-69
2023/06/03 12:53:55;;;;;;;;;;;19.50;45.00;;;;;;5108267;28;20349;-68
2023/06/03 12:56:23;;;;;;;;;;;19.60;45.10;;;;;;5107577;28;19972;-69
2023/06/03 12:58:49;;;;;;;;;;;19.50;46.20;;;;;;5107816;28;19980;-68
2023/06/03 13:01:14;;;;;;;;;;;19.50;45.20;;;;;;5107724;28;20022;-68
2023/06/03 13:03:40;;;;;;;;;;;19.50;46.50;;;;;;5108056;28;20000;-68
2023/06/03 13:06:05;;;;;;;;;;;19.60;45.70;;;;;;5107604;28;19920;-68
2023/06/03 13:08:31;;;;;;;;;;;19.60;45.20;;;;;;5099122;28;19920;-69
2023/06/03 13:10:56;;;;;;;;;;;19.60;45.50;;;;;;5093904;28;20402;-69
2023/06/03 13:13:22;;;;;;;;;;;19.60;46.20;;;;;;5094283;28;19971;-69
2023/06/03 13:15:47;;;;;;;;;;;19.60;45.70;;;;;;5093851;28;20287;-68
2023/06/03 13:18:13;;;;;;;;;;;19.60;45.20;;;;;;5094265;28;19977;-68
2023/06/03 13:20:38;;;;;;;;;;;19.60;45.60;;;;;;5094082;28;20426;-69
2023/06/03 13:23:04;;;;;;;;;;;19.60;45.10;;;;;;5094023;28;19924;-68
2023/06/03 13:25:29;;;;;;;;;;;19.60;45.80;;;;;;5095240;28;19928;-68
2023/06/03 13:27:55;;;;;;;;;;;19.60;46.70;;;;;;5093934;28;19920;-69
2023/06/03 13:30:20;;;;;;;;;;;19.60;46.50;;;;;;5093991;28;19975;-68
2023/06/03 13:32:46;;;;;;;;;;;19.60;45.70;;;;;;5093592;28;20346;-68
2023/06/03 13:35:11;;;;;;;;;;;19.70;45.20;;;;;;5095299;28;19965;-68
2023/06/03 13:37:37;;;;;;;;;;;19.70;46.50;;;;;;5094592;28;19932;-68
2023/06/03 13:40:03;;;;;;;;;;;19.70;45.30;;;;;;5094809;28;19981;-68
2023/06/03 13:42:29;;;;;;;;;;;19.60;45.00;;;;;;5093827;28;20014;-69
2023/06/03 13:44:54;;;;;;;;;;;19.70;44.90;;;;;;5093468;28;20459;-69
2023/06/03 13:47:20;;;;;;;;;;;19.70;44.90;;;;;;5093295;28;19919;-68
2023/06/03 13:49:45;;;;;;;;;;;19.70;46.20;;;;;;5094568;28;20295;-69
2023/06/03 13:52:11;;;;;;;;;;;19.70;45.10;;;;;;5093548;28;20383;-68
2023/06/03 13:54:36;;;;;;;;;;;19.70;45.70;;;;;;5094699;28;19927;-68
2023/06/03 13:57:02;;;;;;;;;;;19.70;46.40;;;;;;5092957;28;19928;-69
2023/06/03 13:59:28;;;;;;;;;;;19.70;45.00;;;;;;5094383;28;19920;-68
2023/06/03 14:01:53;;;;;;;;;;;19.70;45.00;;;;;;5093376;28;20027;-68
2023/06/03 14:04:19;;;;;;;;;;;19.70;45.50;;;;;;5093022;28;19920;-68
2023/06/03 14:06:45;;;;;;;;;;;19.80;44.90;;;;;;5093252;28;19930;-68
2023/06/03 14:09:10;;;;;;;;;;;19.80;44.90;;;;;;5094135;28;20033;-69
2023/06/03 14:11:36;;;;;;;;;;;19.80;44.80;;;;;;5093131;28;19927;-69
2023/06/03 14:14:02;;;;;;;;;;;19.80;44.80;;;;;;5093073;28;20003;-68
2023/06/03 14:16:27;;;;;;;;;;;19.80;45.70;;;;;;5127016;27;19981;-69
2023/06/03 14:18:53;;;;;;;;;;;19.80;45.10;;;;;;5126904;27;19924;-69
2023/06/03 14:21:19;;;;;;;;;;;19.80;45.20;;;;;;5093307;28;19920;-69
2023/06/03 14:23:44;;;;;;;;;;;19.80;44.90;;;;;;5092748;28;20268;-68
2023/06/03 14:26:10;;;;;;;;;;;19.80;45.80;;;;;;5093912;28;19920;-68
2023/06/03 14:28:35;;;;;;;;;;;19.80;46.20;;;;;;5092781;28;20441;-68
2023/06/03 14:31:01;;;;;;;;;;;19.80;45.00;;;;;;5126962;27;19948;-68
2023/06/03 14:33:28;;;;;;;;;;;19.80;44.80;;;;;;5092756;28;20387;-68
2023/06/03 14:35:53;;;;;;;;;;;19.80;44.80;;;;;;5093596;28;20015;-69
2023/06/03 14:38:19;;;;;;;;;;;19.90;44.80;;;;;;5092631;28;20020;-68
2023/06/03 14:40:45;;;;;;;;;;;19.90;44.90;;;;;;5092285;28;19946;-69
2023/06/03 14:43:11;;;;;;;;;;;19.90;44.80;;;;;;5092604;28;19943;-69
2023/06/03 14:45:36;;;;;;;;;;;19.90;44.80;;;;;;5093591;28;19924;-68
2023/06/03 14:48:02;;;;;;;;;;;19.90;44.80;;;;;;5092141;28;20006;-68